X  Tanca Dades meteorològiques de l'aviació METAR     LEAL Alicante-Elche Miguel Hernández Airport
Temperatura
12°C Temperatura
9°C Rosada
82% Humitat



Vent
3 KM/H
2 MPH
1 M/S
2 NUS



300°
ONO
Condicions actuals

Sense núvols Sense núvols
Pressió 1013.88 (hPa) - 29.94 (inHg)
Visibilitat 6 (milla) - 9.7 (km)
Aeroport
Codi aeroport LEAL

Ubicació: Alicante-Elche Miguel Hernández Airport
Distància: 30 (km)

Metar:
LEAL 220200Z 30002KT CAVOK 12/09 Q1014 NOSIG

Temps: 22-04-2024 04:00 CEST